createdAt,value
2018-12-03T00:00:27.469Z,10.08
2018-12-03T00:02:59.501Z,10.95
2018-12-03T00:05:27.877Z,7.80
2018-12-03T00:07:56.127Z,8.53
2018-12-03T00:10:24.378Z,8.80
2018-12-03T00:12:52.634Z,8.95
2018-12-03T00:15:20.875Z,9.10
2018-12-03T00:17:49.142Z,8.20
2018-12-03T00:20:17.442Z,7.80
2018-12-03T00:22:45.716Z,8.60
2018-12-03T00:25:13.976Z,9.43
2018-12-03T00:27:48.550Z,9.33
2018-12-03T00:30:16.887Z,9.63
2018-12-03T00:32:45.167Z,9.93
2018-12-03T00:35:13.580Z,10.43
2018-12-03T00:37:41.841Z,10.23
2018-12-03T00:40:10.310Z,13.03
2018-12-03T00:42:38.550Z,10.70
2018-12-03T00:45:06.830Z,9.53
2018-12-03T00:47:35.068Z,9.70
2018-12-03T00:50:03.285Z,9.30
2018-12-03T00:52:31.569Z,9.67
2018-12-03T00:54:59.798Z,11.77
2018-12-03T00:57:28.084Z,5.90
2018-12-03T00:59:56.320Z,5.33
2018-12-03T01:02:26.355Z,5.27
2018-12-03T01:04:55.108Z,5.12
2018-12-03T01:07:23.544Z,4.10
2018-12-03T01:09:52.087Z,5.50
2018-12-03T01:12:20.347Z,4.10
2018-12-03T01:14:48.657Z,4.30
2018-12-03T01:17:16.894Z,3.25
2018-12-03T01:19:45.167Z,3.67
2018-12-03T01:22:13.469Z,3.20
2018-12-03T01:24:41.871Z,4.40
2018-12-03T01:27:10.133Z,5.67
2018-12-03T01:29:38.359Z,3.50
2018-12-03T01:32:06.614Z,6.20
2018-12-03T01:34:34.880Z,3.50
2018-12-03T01:37:03.213Z,3.80
2018-12-03T01:39:31.453Z,3.07
2018-12-03T01:41:59.679Z,2.63
2018-12-03T01:44:27.905Z,2.87
2018-12-03T01:46:56.132Z,3.77
2018-12-03T01:49:24.371Z,3.10
2018-12-03T01:51:52.668Z,3.50
2018-12-03T01:54:20.894Z,3.20
2018-12-03T01:56:49.133Z,3.67
2018-12-03T01:59:17.382Z,5.87
2018-12-03T02:01:45.662Z,6.10
2018-12-03T02:04:13.885Z,5.60
2018-12-03T02:06:42.167Z,7.47
2018-12-03T02:09:10.431Z,10.88
2018-12-03T02:11:38.677Z,7.30
2018-12-03T02:14:07.421Z,9.45
2018-12-03T02:16:35.691Z,7.62
2018-12-03T02:19:03.989Z,11.15
2018-12-03T02:21:32.233Z,8.35
2018-12-03T02:24:00.589Z,9.33
2018-12-03T02:26:28.832Z,8.98
2018-12-03T02:28:57.063Z,8.30
2018-12-03T02:31:25.351Z,12.00
2018-12-03T02:33:53.809Z,11.57
2018-12-03T02:36:22.058Z,12.37
2018-12-03T02:38:50.294Z,8.70
2018-12-03T02:41:18.535Z,8.90
2018-12-03T02:43:46.852Z,9.07
2018-12-03T02:46:15.067Z,7.07
2018-12-03T02:48:43.302Z,13.07
2018-12-03T02:51:11.551Z,14.67
2018-12-03T02:53:39.812Z,10.60
2018-12-03T02:56:08.009Z,10.30
2018-12-03T02:58:36.292Z,11.13
2018-12-03T03:01:07.440Z,7.57
2018-12-03T03:03:35.713Z,9.23
2018-12-03T03:06:03.983Z,9.20
2018-12-03T03:08:32.263Z,10.90
2018-12-03T03:11:00.559Z,11.93
2018-12-03T03:13:28.800Z,8.90
2018-12-03T03:15:57.079Z,8.70
2018-12-03T03:18:25.307Z,6.08
2018-12-03T03:20:53.554Z,8.55
2018-12-03T03:23:21.789Z,8.15
2018-12-03T03:25:50.088Z,6.95
2018-12-03T03:28:18.319Z,7.80
2018-12-03T03:30:46.553Z,6.97
2018-12-03T03:33:14.866Z,7.22
2018-12-03T03:35:43.114Z,5.47
2018-12-03T03:38:11.402Z,5.00
2018-12-03T03:40:39.723Z,7.53
2018-12-03T03:43:08.058Z,5.83
2018-12-03T03:45:36.351Z,7.90
2018-12-03T03:48:04.870Z,12.85
2018-12-03T03:50:33.177Z,8.38
2018-12-03T03:53:01.491Z,9.48
2018-12-03T03:55:29.804Z,8.00
2018-12-03T03:57:58.137Z,8.93
2018-12-03T04:00:26.443Z,7.77
2018-12-03T04:02:54.707Z,7.83
2018-12-03T04:05:22.997Z,10.23
2018-12-03T04:07:51.359Z,9.57
2018-12-03T04:10:19.847Z,6.97
2018-12-03T04:12:48.153Z,8.93
2018-12-03T04:15:16.878Z,10.53
2018-12-03T04:17:45.345Z,7.20
2018-12-03T04:20:15.691Z,9.28
2018-12-03T04:22:45.333Z,11.95
2018-12-03T04:25:13.946Z,6.95
2018-12-03T04:27:42.219Z,10.57
2018-12-03T04:30:13.102Z,13.40
2018-12-03T04:32:41.529Z,9.38
2018-12-03T04:35:10.339Z,10.30
2018-12-03T04:37:38.639Z,11.90
2018-12-03T04:40:11.269Z,13.10
2018-12-03T04:42:39.577Z,11.28
2018-12-03T04:45:11.096Z,8.83
2018-12-03T04:47:39.371Z,11.47
2018-12-03T04:50:15.608Z,12.90
2018-12-03T04:52:43.888Z,10.70
2018-12-03T04:55:12.992Z,9.70
2018-12-03T04:57:41.265Z,11.50
2018-12-03T05:00:16.551Z,12.17
2018-12-03T05:02:45.925Z,10.37
2018-12-03T05:05:14.237Z,12.50
2018-12-03T05:07:42.527Z,13.20
2018-12-03T05:10:13.016Z,13.22
2018-12-03T05:12:41.458Z,12.63
2018-12-03T05:15:10.732Z,14.40
2018-12-03T05:17:39.320Z,12.13
2018-12-03T05:20:09.321Z,11.00
2018-12-03T05:22:37.596Z,11.88
2018-12-03T05:25:06.909Z,13.80
2018-12-03T05:27:35.177Z,11.05
2018-12-03T05:30:03.779Z,11.28
2018-12-03T05:32:32.017Z,11.43
2018-12-03T05:35:00.261Z,10.03
2018-12-03T05:37:28.482Z,10.00
2018-12-03T05:39:56.709Z,11.67
2018-12-03T05:42:24.965Z,8.10
2018-12-03T05:44:53.225Z,12.63
2018-12-03T05:47:21.490Z,8.07
2018-12-03T05:49:49.681Z,9.17
2018-12-03T05:52:17.960Z,9.13
2018-12-03T05:54:46.203Z,10.80
2018-12-03T05:57:14.460Z,14.87
2018-12-03T05:59:42.681Z,8.98
2018-12-03T06:02:11.004Z,11.65
2018-12-03T06:04:39.281Z,10.03
2018-12-03T06:07:07.477Z,13.55
2018-12-03T06:09:35.734Z,10.10
2018-12-03T06:12:03.995Z,8.80
2018-12-03T06:14:32.265Z,13.53
2018-12-03T06:17:00.487Z,12.78
2018-12-03T06:19:28.721Z,8.35
2018-12-03T06:21:56.972Z,12.18
2018-12-03T06:24:25.244Z,11.05
2018-12-03T06:26:53.530Z,11.25
2018-12-03T06:29:21.788Z,7.70
2018-12-03T06:31:50.019Z,10.32
2018-12-03T06:34:19.062Z,9.30
2018-12-03T06:36:46.562Z,10.95
2018-12-03T06:39:14.811Z,8.50
2018-12-03T06:41:43.055Z,8.80
2018-12-03T06:44:11.345Z,10.93
2018-12-03T06:46:39.603Z,9.20
2018-12-03T06:49:07.860Z,10.63
2018-12-03T06:51:36.181Z,13.72
2018-12-03T06:54:04.457Z,11.10
2018-12-03T06:56:32.738Z,12.70
2018-12-03T06:59:00.978Z,6.65
2018-12-03T07:01:29.241Z,11.68
2018-12-03T07:03:57.508Z,11.60
2018-12-03T07:06:25.722Z,11.57
2018-12-03T07:08:54.099Z,10.55
2018-12-03T07:11:22.354Z,18.07
2018-12-03T07:13:50.654Z,14.75
2018-12-03T07:16:18.898Z,12.73
2018-12-03T07:18:47.187Z,6.92
2018-12-03T07:21:15.430Z,10.17
2018-12-03T07:23:43.701Z,8.80
2018-12-03T07:26:11.938Z,10.93
2018-12-03T07:28:40.179Z,10.53
2018-12-03T07:31:08.440Z,14.87
2018-12-03T07:33:36.755Z,12.23
2018-12-03T07:36:05.460Z,12.70
2018-12-03T07:38:33.772Z,18.00
2018-12-03T07:41:02.002Z,17.25
2018-12-03T07:43:30.268Z,10.30
2018-12-03T07:45:58.531Z,12.20
2018-12-03T07:48:26.761Z,13.28
2018-12-03T07:50:55.090Z,11.20
2018-12-03T07:53:23.329Z,13.03
2018-12-03T07:55:51.602Z,13.55
2018-12-03T07:58:21.350Z,13.20
2018-12-03T08:00:54.135Z,16.32
2018-12-03T08:03:22.694Z,13.50
2018-12-03T08:05:50.945Z,14.87
2018-12-03T08:08:19.255Z,16.07
2018-12-03T08:10:49.309Z,15.40
2018-12-03T08:13:18.427Z,14.75
2018-12-03T08:15:46.659Z,18.07
2018-12-03T08:18:16.685Z,17.57
2018-12-03T08:20:50.062Z,15.55
2018-12-03T08:23:22.357Z,15.10
2018-12-03T08:25:50.629Z,20.23
2018-12-03T08:28:18.856Z,14.77
2018-12-03T08:30:47.121Z,15.63
2018-12-03T08:33:15.389Z,15.97
2018-12-03T08:35:43.809Z,19.30
2018-12-03T08:38:12.060Z,20.85
2018-12-03T08:40:40.340Z,24.45
2018-12-03T08:43:08.647Z,16.45
2018-12-03T08:45:36.886Z,19.27
2018-12-03T08:48:05.192Z,13.72
2018-12-03T08:50:33.460Z,18.30
2018-12-03T08:53:01.776Z,20.92
2018-12-03T08:55:30.108Z,18.85
2018-12-03T08:57:58.322Z,16.23
2018-12-03T09:00:29.807Z,17.57
2018-12-03T09:03:03.512Z,16.87
2018-12-03T09:05:33.064Z,16.43
2018-12-03T09:08:01.340Z,14.98
2018-12-03T09:10:29.650Z,18.50
2018-12-03T09:12:58.948Z,13.55
2018-12-03T09:15:27.187Z,19.65
2018-12-03T09:17:55.498Z,15.13
2018-12-03T09:20:23.755Z,18.75
2018-12-03T09:22:52.019Z,22.42
2018-12-03T09:25:24.161Z,21.17
2018-12-03T09:27:52.405Z,15.23
2018-12-03T09:30:20.636Z,17.52
2018-12-03T09:32:48.903Z,23.83
2018-12-03T09:35:17.195Z,19.92
2018-12-03T09:37:45.448Z,18.87
2018-12-03T09:40:23.770Z,19.42
2018-12-03T09:42:52.394Z,19.60
2018-12-03T09:45:20.629Z,18.67
2018-12-03T09:47:49.517Z,17.80
2018-12-03T09:50:19.980Z,21.47
2018-12-03T09:52:48.340Z,19.95
2018-12-03T09:55:24.911Z,19.32
2018-12-03T09:58:00.827Z,23.98
2018-12-03T10:00:29.089Z,16.95
2018-12-03T10:02:59.048Z,19.30
2018-12-03T10:05:31.133Z,20.27
2018-12-03T10:07:59.372Z,20.70
2018-12-03T10:10:27.648Z,22.60
2018-12-03T10:12:55.932Z,25.97
2018-12-03T10:15:28.218Z,18.50
2018-12-03T10:17:58.160Z,20.85
2018-12-03T10:20:26.501Z,17.32
2018-12-03T10:22:54.758Z,19.57
2018-12-03T10:25:23.030Z,20.12
2018-12-03T10:27:51.269Z,25.57
2018-12-03T10:30:20.806Z,20.10
2018-12-03T10:32:51.487Z,23.02
2018-12-03T10:35:19.778Z,19.45
2018-12-03T10:37:48.348Z,16.63
2018-12-03T10:40:18.869Z,21.30
2018-12-03T10:42:48.203Z,18.25
2018-12-03T10:45:19.308Z,17.48
2018-12-03T10:47:47.589Z,20.40
2018-12-03T10:50:22.217Z,18.87
2018-12-03T10:52:47.296Z,18.60
2018-12-03T10:55:15.569Z,19.60
2018-12-03T10:57:45.114Z,15.93
2018-12-03T11:00:22.799Z,16.00
2018-12-03T11:02:58.115Z,23.60
2018-12-03T11:05:33.321Z,20.70
2018-12-03T11:08:01.571Z,16.95
2018-12-03T11:10:35.270Z,21.70
2018-12-03T11:13:03.476Z,18.60
2018-12-03T11:15:31.830Z,21.97
2018-12-03T11:18:01.041Z,23.52
2018-12-03T11:21:58.607Z,18.32
2018-12-03T11:24:26.054Z,21.37
2018-12-03T11:26:53.628Z,25.72
2018-12-03T11:29:21.390Z,22.45
2018-12-03T11:31:48.854Z,47.73
2018-12-03T11:34:17.132Z,26.62
2018-12-03T11:36:44.560Z,18.75
2018-12-03T11:39:12.045Z,28.87
2018-12-03T11:41:39.481Z,27.37
2018-12-03T11:44:06.964Z,22.65
2018-12-03T11:46:35.246Z,26.73
2018-12-03T11:49:02.696Z,24.10
2018-12-03T11:51:30.102Z,22.60
2018-12-03T11:53:57.590Z,22.30
2018-12-03T11:56:25.145Z,21.30
2018-12-03T11:58:52.579Z,20.77
2018-12-03T12:01:20.010Z,17.27
2018-12-03T12:03:47.532Z,23.62
2018-12-03T12:06:14.990Z,24.97
2018-12-03T12:08:42.401Z,24.13
2018-12-03T12:11:09.870Z,19.92
2018-12-03T12:13:37.339Z,19.25
2018-12-03T12:16:05.006Z,21.85
2018-12-03T12:18:32.414Z,18.67
2018-12-03T12:20:59.852Z,20.00
2018-12-03T12:23:27.285Z,20.75
2018-12-03T12:25:54.703Z,24.05
2018-12-03T12:28:22.188Z,19.87
2018-12-03T12:30:49.652Z,20.48
2018-12-03T12:33:18.166Z,23.33
2018-12-03T12:35:45.813Z,22.85
2018-12-03T12:38:13.284Z,27.22
2018-12-03T12:40:40.806Z,20.62
2018-12-03T12:43:08.233Z,20.53
2018-12-03T12:45:35.740Z,18.85
2018-12-03T12:48:03.263Z,15.23
2018-12-03T12:50:30.733Z,22.73
2018-12-03T12:52:58.205Z,17.63
2018-12-03T12:55:25.636Z,25.60
2018-12-03T12:57:53.077Z,24.67
2018-12-03T13:00:20.580Z,18.55
2018-12-03T13:02:48.008Z,21.45
2018-12-03T13:05:15.624Z,20.85
2018-12-03T13:07:43.121Z,20.50
2018-12-03T13:10:10.715Z,22.73
2018-12-03T13:12:38.155Z,21.43
2018-12-03T13:15:07.660Z,22.02
2018-12-03T13:17:35.073Z,21.65
2018-12-03T13:20:02.581Z,20.90
2018-12-03T13:22:33.520Z,18.87
2018-12-03T13:25:00.979Z,19.85
2018-12-03T13:27:28.529Z,23.42
2018-12-03T13:29:55.989Z,25.77
2018-12-03T13:32:23.451Z,16.93
2018-12-03T13:34:50.904Z,20.97
2018-12-03T13:37:18.362Z,22.42
2018-12-03T13:39:45.812Z,21.75
2018-12-03T13:42:13.219Z,26.80
2018-12-03T13:44:40.631Z,16.17
2018-12-03T13:47:08.082Z,18.07
2018-12-03T13:49:35.501Z,14.70
2018-12-03T13:52:02.944Z,10.30
2018-12-03T13:54:30.450Z,9.03
2018-12-03T13:56:57.872Z,6.10
2018-12-03T13:59:25.366Z,10.13
2018-12-03T14:01:52.793Z,12.43
2018-12-03T14:04:22.188Z,14.15
2018-12-03T14:06:49.656Z,12.07
2018-12-03T14:09:17.153Z,22.77
2018-12-03T14:11:44.712Z,18.03
2018-12-03T14:14:12.946Z,19.42
2018-12-03T14:16:42.814Z,19.42
2018-12-03T14:19:10.450Z,21.80
2018-12-03T14:21:37.933Z,18.35
2018-12-03T14:24:06.020Z,17.25
2018-12-03T14:26:33.541Z,29.15
2018-12-03T14:29:00.971Z,22.17
2018-12-03T14:31:28.468Z,21.97
2018-12-03T14:33:55.888Z,18.40
2018-12-03T14:36:23.325Z,15.43
2018-12-03T14:38:50.742Z,21.65
2018-12-03T14:41:18.182Z,18.23
2018-12-03T14:43:45.643Z,15.90
2018-12-03T14:46:13.125Z,22.27
2018-12-03T14:48:40.568Z,19.37
2018-12-03T14:51:07.986Z,17.92
2018-12-03T14:53:35.483Z,23.77
2018-12-03T14:56:02.917Z,21.80
2018-12-03T14:58:30.389Z,23.40
2018-12-03T15:00:57.952Z,23.18
2018-12-03T15:03:25.395Z,19.10
2018-12-03T15:05:52.967Z,21.73
2018-12-03T15:08:20.379Z,26.77
2018-12-03T15:10:47.801Z,21.40
2018-12-03T15:13:15.231Z,19.92
2018-12-03T15:15:42.702Z,21.80
2018-12-03T15:18:10.131Z,19.40
2018-12-03T15:20:37.568Z,19.00
2018-12-03T15:23:05.003Z,19.12
2018-12-03T15:25:32.439Z,20.30
2018-12-03T15:27:59.971Z,13.35
2018-12-03T15:30:27.415Z,12.10
2018-12-03T15:32:54.835Z,14.47
2018-12-03T15:35:22.341Z,16.75
2018-12-03T15:37:49.775Z,19.73
2018-12-03T15:40:17.341Z,19.57
2018-12-03T15:42:44.811Z,14.13
2018-12-03T15:45:12.253Z,14.15
2018-12-03T15:47:39.728Z,14.45
2018-12-03T15:50:07.300Z,18.37
2018-12-03T15:52:34.721Z,13.47
2018-12-03T15:55:02.316Z,16.85
2018-12-03T15:57:29.768Z,13.22
2018-12-03T15:59:57.210Z,14.47
2018-12-03T16:02:24.713Z,11.37
2018-12-03T16:04:52.271Z,13.05
2018-12-03T16:07:19.694Z,24.82
2018-12-03T16:09:47.120Z,15.48
2018-12-03T16:12:14.604Z,9.60
2018-12-03T16:14:42.020Z,9.18
2018-12-03T16:17:09.468Z,12.15
2018-12-03T16:19:36.980Z,13.45
2018-12-03T16:22:04.522Z,13.07
2018-12-03T16:24:31.992Z,12.35
2018-12-03T16:26:59.435Z,13.20
2018-12-03T16:29:26.917Z,11.30
2018-12-03T16:31:54.510Z,12.00
2018-12-03T16:34:21.947Z,14.00
2018-12-03T16:36:49.501Z,9.00
2018-12-03T16:39:16.905Z,12.98
2018-12-03T16:41:44.319Z,14.53
2018-12-03T16:44:11.741Z,15.23
2018-12-03T16:46:39.198Z,25.08
2018-12-03T16:49:06.638Z,12.68
2018-12-03T16:51:34.058Z,12.58
2018-12-03T16:54:01.479Z,12.85
2018-12-03T16:56:28.926Z,14.07
2018-12-03T16:58:56.353Z,13.08
2018-12-03T17:01:23.929Z,14.00
2018-12-03T17:03:51.396Z,15.28
2018-12-03T17:06:18.823Z,15.23
2018-12-03T17:08:46.312Z,17.43
2018-12-03T17:11:13.780Z,20.48
2018-12-03T17:13:41.218Z,15.72
2018-12-03T17:16:08.640Z,18.15
2018-12-03T17:18:36.212Z,22.00
2018-12-03T17:21:03.732Z,16.13
2018-12-03T17:23:31.397Z,20.50
2018-12-03T17:25:58.920Z,20.20
2018-12-03T17:28:26.678Z,16.20
2018-12-03T17:30:54.138Z,19.25
2018-12-03T17:33:21.566Z,14.60
2018-12-03T17:35:49.153Z,15.47
2018-12-03T17:38:16.631Z,16.67
2018-12-03T17:40:44.055Z,15.38
2018-12-03T17:43:11.515Z,14.83
2018-12-03T17:45:38.997Z,18.50
2018-12-03T17:48:06.417Z,16.85
2018-12-03T17:50:33.848Z,11.83
2018-12-03T17:53:01.377Z,15.23
2018-12-03T17:55:28.834Z,14.55
2018-12-03T17:57:56.284Z,13.80
2018-12-03T18:00:23.723Z,12.13
2018-12-03T18:02:51.152Z,11.50
2018-12-03T18:05:18.589Z,13.65
2018-12-03T18:07:46.010Z,9.90
2018-12-03T18:10:13.571Z,11.20
2018-12-03T18:12:41.025Z,9.30
2018-12-03T18:15:08.579Z,9.43
2018-12-03T18:17:36.125Z,11.25
2018-12-03T18:20:04.306Z,13.67
2018-12-03T18:22:31.777Z,14.40
2018-12-03T18:24:59.208Z,12.78
2018-12-03T18:27:26.627Z,14.68
2018-12-03T18:29:54.138Z,12.47
2018-12-03T18:32:21.558Z,13.70
2018-12-03T18:34:49.043Z,11.57
2018-12-03T18:37:16.468Z,15.23
2018-12-03T18:39:43.930Z,8.08
2018-12-03T18:42:11.345Z,10.98
2018-12-03T18:44:38.773Z,15.00
2018-12-03T18:47:06.344Z,14.80
2018-12-03T18:49:33.810Z,18.90
2018-12-03T18:52:01.353Z,10.85
2018-12-03T18:54:28.810Z,14.87
2018-12-03T18:56:56.279Z,14.97
2018-12-03T18:59:23.733Z,14.78
2018-12-03T19:01:51.169Z,11.80
2018-12-03T19:04:18.629Z,19.27
2018-12-03T19:06:46.088Z,13.03
2018-12-03T19:09:13.574Z,14.18
2018-12-03T19:11:41.006Z,13.95
2018-12-03T19:14:08.490Z,14.05
2018-12-03T19:16:36.027Z,13.25
2018-12-03T19:19:03.451Z,17.60
2018-12-03T19:21:30.949Z,12.40
2018-12-03T19:23:58.415Z,14.28
2018-12-03T19:26:25.852Z,12.65
2018-12-03T19:28:53.289Z,18.17
2018-12-03T19:31:20.780Z,20.20
2018-12-03T19:33:48.330Z,19.23
2018-12-03T19:36:15.754Z,11.83
2018-12-03T19:38:43.247Z,16.02
2018-12-03T19:41:10.712Z,12.97
2018-12-03T19:43:38.164Z,17.70
2018-12-03T19:46:05.590Z,20.20
2018-12-03T19:48:33.038Z,13.70
2018-12-03T19:51:00.544Z,12.35
2018-12-03T19:53:27.992Z,17.43
2018-12-03T19:55:55.443Z,19.77
2018-12-03T19:58:23.008Z,16.12
2018-12-03T20:00:50.438Z,14.58
2018-12-03T20:03:17.930Z,18.17
2018-12-03T20:05:45.489Z,17.32
2018-12-03T20:08:12.923Z,26.55
2018-12-03T20:10:40.355Z,17.95
2018-12-03T20:13:07.844Z,17.25
2018-12-03T20:15:35.268Z,15.20
2018-12-03T20:18:02.750Z,17.17
2018-12-03T20:20:30.414Z,17.90
2018-12-03T20:22:57.913Z,16.53
2018-12-03T20:25:25.372Z,17.52
2018-12-03T20:27:52.908Z,18.27
2018-12-03T20:30:24.236Z,18.95
2018-12-03T20:32:51.998Z,21.75
2018-12-03T20:35:19.457Z,18.75
2018-12-03T20:37:46.956Z,25.80
2018-12-03T20:40:16.194Z,21.10
2018-12-03T20:42:43.788Z,19.27
2018-12-03T20:45:17.915Z,24.85
2018-12-03T20:47:46.612Z,24.13
2018-12-03T20:50:15.869Z,24.75
2018-12-03T20:52:47.452Z,22.48
2018-12-03T20:55:14.878Z,21.55
2018-12-03T20:57:42.451Z,24.03
2018-12-03T21:00:10.716Z,22.27
2018-12-03T21:02:38.201Z,21.33
2018-12-03T21:05:06.045Z,23.85
2018-12-03T21:07:33.478Z,21.10
2018-12-03T21:10:00.905Z,23.38
2018-12-03T21:12:28.317Z,22.50
2018-12-03T21:14:55.757Z,22.98
2018-12-03T21:17:23.179Z,21.20
2018-12-03T21:19:52.020Z,24.73
2018-12-03T21:22:19.446Z,25.43
2018-12-03T21:24:46.897Z,24.40
2018-12-03T21:27:14.319Z,23.85
2018-12-03T21:29:41.738Z,27.52
2018-12-03T21:32:09.178Z,26.68
2018-12-03T21:34:36.600Z,23.65
2018-12-03T21:37:04.105Z,23.02
2018-12-03T21:39:31.522Z,29.60
2018-12-03T21:41:58.959Z,28.02
2018-12-03T21:44:26.386Z,25.05
2018-12-03T21:46:53.829Z,28.55
2018-12-03T21:49:21.270Z,29.35
2018-12-03T21:51:48.762Z,31.40
2018-12-03T21:54:16.202Z,30.68
2018-12-03T21:56:43.665Z,32.42
2018-12-03T21:59:11.118Z,23.95
2018-12-03T22:01:38.650Z,28.43
2018-12-03T22:04:06.159Z,30.25
2018-12-03T22:06:33.648Z,27.87
2018-12-03T22:09:01.152Z,30.20
2018-12-03T22:11:28.623Z,24.97
2018-12-03T22:13:56.080Z,30.10
2018-12-03T22:16:23.529Z,28.73
2018-12-03T22:18:51.181Z,28.98
2018-12-03T22:21:18.643Z,28.03
2018-12-03T22:23:46.119Z,25.35
2018-12-03T22:26:13.558Z,24.47
2018-12-03T22:28:41.023Z,27.73
2018-12-03T22:31:08.470Z,23.95
2018-12-03T22:33:35.911Z,30.87
2018-12-03T22:36:03.383Z,27.45
2018-12-03T22:38:30.848Z,30.10
2018-12-03T22:40:58.297Z,32.13
2018-12-03T22:43:25.770Z,31.27
2018-12-03T22:45:53.207Z,24.40
2018-12-03T22:48:20.640Z,26.80
2018-12-03T22:50:48.136Z,29.30
2018-12-03T22:53:15.552Z,27.45
2018-12-03T22:55:42.960Z,29.13
2018-12-03T22:58:10.411Z,32.10
2018-12-03T23:00:38.181Z,29.32
2018-12-03T23:03:05.657Z,18.60
2018-12-03T23:05:33.066Z,19.60
2018-12-03T23:08:00.503Z,15.98
2018-12-03T23:10:27.918Z,17.25
2018-12-03T23:12:55.379Z,16.17
2018-12-03T23:15:22.868Z,23.23
2018-12-03T23:17:50.377Z,27.82
2018-12-03T23:20:17.813Z,20.00
2018-12-03T23:22:45.240Z,13.80
2018-12-03T23:25:12.737Z,13.57
2018-12-03T23:27:40.190Z,16.42
2018-12-03T23:30:07.723Z,11.22
2018-12-03T23:32:35.212Z,8.60
2018-12-03T23:35:02.663Z,11.73
2018-12-03T23:37:30.221Z,11.10
2018-12-03T23:39:57.693Z,8.58
2018-12-03T23:42:25.144Z,6.10
2018-12-03T23:44:52.597Z,3.42
2018-12-03T23:47:20.069Z,5.20
2018-12-03T23:49:47.617Z,5.03
2018-12-03T23:52:15.068Z,4.00
2018-12-03T23:54:42.487Z,3.05
2018-12-03T23:57:09.981Z,5.95
2018-12-03T23:59:37.717Z,5.03
